Time;durP1;ratioP1;P1;durP2;ratioP2;P2;SDS_P1;SDS_P2;PMS_P1;PMS_P2;Temp;Humidity;BMP_temperature;BMP_pressure;BME280_temperature;BME280_humidity;BME280_pressure;Samples;Min_cycle;Max_cycle;Signal;HPM_P1;HPM_P2
2022/12/12 00:01:39;;;;;;;6.30;4.53;;;;;;;-1.20;79.61;94248.24;1787298;80;21022;-66
2022/12/12 00:04:06;;;;;;;7.30;4.73;;;;;;;-1.22;79.69;94243.48;1783342;80;20994;-66
2022/12/12 00:06:33;;;;;;;7.40;4.17;;;;;;;-1.17;79.93;94241.78;1777439;81;21030;-66
2022/12/12 00:09:00;;;;;;;5.73;3.73;;;;;;;-1.11;80.07;94246.97;1777292;81;21007;-66
2022/12/12 00:11:27;;;;;;;6.30;4.03;;;;;;;-1.09;79.54;94251.72;1777813;81;21433;-66
2022/12/12 00:13:54;;;;;;;6.77;4.50;;;;;;;-1.15;78.77;94247.83;1777878;80;20980;-66
2022/12/12 00:16:22;;;;;;;7.60;4.50;;;;;;;-1.16;79.20;94253.84;1777666;80;20986;-66
2022/12/12 00:18:48;;;;;;;6.93;4.30;;;;;;;-1.15;79.36;94247.83;1777448;81;21006;-66
2022/12/12 00:21:19;;;;;;;6.83;4.40;;;;;;;-1.11;79.64;94245.67;1777673;81;20981;-66
2022/12/12 00:23:46;;;;;;;6.80;3.90;;;;;;;-1.14;79.29;94250.84;1777872;80;21061;-66
2022/12/12 00:26:20;;;;;;;6.60;4.07;;;;;;;-1.15;79.41;94250.42;1751773;81;21103;-66
2022/12/12 00:28:48;;;;;;;7.60;4.77;;;;;;;-1.13;79.83;94246.13;1777762;81;20978;-65
2022/12/12 00:31:15;;;;;;;5.83;4.37;;;;;;;-1.09;80.10;94251.72;1777213;81;21061;-66
2022/12/12 00:33:43;;;;;;;5.97;4.03;;;;;;;-1.04;79.94;94255.63;1777833;80;21013;-66
2022/12/12 00:36:10;;;;;;;7.53;4.27;;;;;;;-0.99;79.83;94257.81;1777677;81;21033;-66
2022/12/12 00:38:37;;;;;;;6.23;4.40;;;;;;;-1.04;79.56;94256.92;1777888;81;20966;-66
2022/12/12 00:41:05;;;;;;;7.53;4.50;;;;;;;-1.04;79.67;94259.52;1777728;81;21046;-66
2022/12/12 00:43:32;;;;;;;6.47;3.70;;;;;;;-1.00;79.85;94272.92;1777710;81;20989;-66
2022/12/12 00:46:01;;;;;;;5.93;3.80;;;;;;;-1.04;79.18;94267.28;1777582;81;21006;-66
2022/12/12 00:48:28;;;;;;;5.43;3.93;;;;;;;-1.12;79.49;94269.41;1777862;80;20974;-66
2022/12/12 00:50:55;;;;;;;6.77;4.43;;;;;;;-1.14;79.98;94265.94;1777298;81;21022;-66
2022/12/12 00:53:22;;;;;;;7.70;4.77;;;;;;;-1.18;79.64;94264.21;1777803;81;21034;-66
2022/12/12 00:55:56;;;;;;;6.60;4.50;;;;;;;-1.15;79.82;94267.24;1777429;81;22287;-66
2022/12/12 00:58:24;;;;;;;5.70;4.12;;;;;;;-1.16;79.76;94270.27;1777654;81;21022;-66
2022/12/12 01:00:52;;;;;;;7.30;4.40;;;;;;;-1.13;80.30;94265.09;1777257;81;20986;-66
2022/12/12 01:03:19;;;;;;;7.30;4.73;;;;;;;-1.12;79.85;94259.05;1777682;80;21049;-66
2022/12/12 01:05:47;;;;;;;11.50;6.03;;;;;;;-1.06;80.21;94259.94;1782324;80;20975;-66
2022/12/12 01:08:14;;;;;;;13.93;6.53;;;;;;;-1.03;80.05;94260.83;1777779;80;21467;-66
2022/12/12 01:10:40;;;;;;;12.87;7.13;;;;;;;-0.99;79.80;94260.40;1777828;80;21038;-66
2022/12/12 01:13:07;;;;;;;12.47;7.00;;;;;;;-0.94;80.13;94255.66;1777378;80;21011;-66
2022/12/12 01:15:34;;;;;;;11.00;6.97;;;;;;;-0.87;80.08;94258.72;1777654;80;21503;-66
2022/12/12 01:18:00;;;;;;;9.37;5.33;;;;;;;-0.81;80.11;94264.34;1777458;80;20970;-66
2022/12/12 01:20:28;;;;;;;9.37;5.40;;;;;;;-0.84;79.67;94265.62;1777676;81;21001;-66
2022/12/12 01:22:55;;;;;;;11.20;6.60;;;;;;;-0.87;79.32;94262.60;1777846;80;20982;-66
2022/12/12 01:25:22;;;;;;;12.13;6.97;;;;;;;-0.88;79.54;94262.61;1777779;81;21038;-66
2022/12/12 01:27:49;;;;;;;12.63;7.50;;;;;;;-0.87;79.80;94255.27;1777727;81;20974;-66
2022/12/12 01:30:19;;;;;;;14.97;8.57;;;;;;;-0.88;79.73;94258.73;1777657;80;21005;-66
2022/12/12 01:32:46;;;;;;;14.73;7.97;;;;;;;-0.88;79.86;94258.73;1777530;80;20985;-66
2022/12/12 01:35:13;;;;;;;13.47;7.57;;;;;;;-0.84;80.02;94269.52;1777722;81;20983;-66
2022/12/12 01:37:41;;;;;;;13.40;6.90;;;;;;;-0.87;80.01;94281.16;1777786;81;21037;-66
2022/12/12 01:40:18;;;;;;;9.50;6.57;;;;;;;-0.93;80.23;94272.09;1777632;81;21006;-66
2022/12/12 01:42:46;;;;;;;10.87;6.67;;;;;;;-0.96;80.51;94263.88;1777831;81;21058;-66
2022/12/12 01:46:01;;;;;;;8.90;5.63;;;;;;;-0.95;80.37;94259.56;1751953;81;21049;-66
2022/12/12 01:48:41;;;;;;;8.83;5.70;;;;;;;-0.96;80.87;94260.00;1777843;80;21029;-66
2022/12/12 01:51:19;;;;;;;9.83;5.90;;;;;;;-0.94;80.49;94261.28;1751945;81;21006;-66
2022/12/12 01:53:48;;;;;;;10.00;6.47;;;;;;;-0.93;80.65;94260.00;1777842;81;21506;-66
2022/12/12 01:56:17;;;;;;;10.57;6.13;;;;;;;-0.87;80.81;94250.09;1777904;81;21038;-66
2022/12/12 01:58:47;;;;;;;9.10;6.40;;;;;;;-0.80;80.97;94248.40;1777844;81;20962;-66
2022/12/12 02:01:15;;;;;;;9.40;5.93;;;;;;;-0.68;81.13;94254.87;1777515;80;21009;-66
2022/12/12 02:03:43;;;;;;;9.03;5.47;;;;;;;-0.60;80.96;94258.81;1777827;80;21454;-66
2022/12/12 02:06:15;;;;;;;9.67;5.63;;;;;;;-0.54;79.89;94261.41;1777756;80;21010;-66
2022/12/12 02:08:45;;;;;;;11.17;6.10;;;;;;;-0.57;79.49;94270.47;1777938;80;20966;-66
2022/12/12 02:11:12;;;;;;;8.40;5.40;;;;;;;-0.51;79.93;94274.36;1777847;81;21009;-66
2022/12/12 02:13:39;;;;;;;9.77;5.77;;;;;;;-0.59;79.22;94269.16;1778218;80;20973;-66
2022/12/12 02:16:24;;;;;;;9.87;5.60;;;;;;;-0.66;79.53;94268.70;1777514;80;21009;-66
2022/12/12 02:19:30;;;;;;;10.13;6.30;;;;;;;-0.60;79.36;94266.15;1777596;81;21022;-66
2022/12/12 02:22:05;;;;;;;10.37;6.40;;;;;;;-0.56;79.43;94263.13;1777822;81;21002;-66
2022/12/12 02:25:11;;;;;;;9.97;5.73;;;;;;;-0.65;78.67;94261.39;1777870;80;20990;-66
2022/12/12 02:28:07;;;;;;;9.30;6.13;;;;;;;-0.66;79.46;94257.94;1777888;80;21453;-66
2022/12/12 02:30:54;;;;;;;11.23;6.47;;;;;;;-0.66;79.55;94260.53;1777198;81;21018;-66
2022/12/12 02:33:46;;;;;;;9.73;5.80;;;;;;;-0.71;79.96;94254.44;1777941;80;20998;-66
2022/12/12 02:36:30;;;;;;;10.20;6.07;;;;;;;-0.64;80.17;94256.63;1777799;81;21049;-66
2022/12/12 02:39:34;;;;;;;10.00;5.87;;;;;;;-0.60;80.07;94246.72;1777012;81;21019;-66
2022/12/12 02:42:16;;;;;;;;;;;;;;;-0.55;79.37;94248.89;1780456;81;21010;-66
2022/12/12 02:44:54;;;;;;;8.67;5.20;;;;;;;-0.54;79.65;94238.09;1777204;80;20430;-66
2022/12/12 02:47:29;;;;;;;10.60;5.50;;;;;;;-0.60;79.12;94240.25;1777736;81;21042;-66
2022/12/12 02:50:09;;;;;;;10.40;6.27;;;;;;;-0.69;78.90;94234.59;1777134;81;21001;-66
2022/12/12 02:52:36;;;;;;;8.50;5.77;;;;;;;-0.62;79.91;94250.17;1777793;81;20955;-66
2022/12/12 02:55:05;;;;;;;9.63;5.87;;;;;;;-0.67;79.34;94261.37;1777900;80;21000;-66
2022/12/12 02:57:32;;;;;;;6.93;4.90;;;;;;;-0.76;79.11;94256.59;1777699;80;21032;-66
2022/12/12 03:00:07;;;;;;;9.03;5.77;;;;;;;-0.82;78.89;94268.23;1777583;81;21010;-66
2022/12/12 03:09:15;;;;;;;10.13;6.07;;;;;;;-0.85;80.72;94255.29;1787852;80;21041;-66
2022/12/12 03:11:47;;;;;;;9.80;6.40;;;;;;;-0.78;80.62;94255.72;1787605;80;20974;-66
2022/12/12 03:14:38;;;;;;;8.18;5.25;;;;;;;-0.76;80.47;94259.18;1787667;80;21073;-66
2022/12/12 03:17:22;;;;;;;8.87;5.40;;;;;;;-0.71;79.98;94262.64;1787792;80;20986;-66
2022/12/12 03:20:06;;;;;;;;;;;;;;;-0.68;79.74;94259.66;1780486;80;21013;-66
2022/12/12 03:22:48;;;;;;;;;;;;;;;-0.68;79.65;94260.06;1790430;80;20104;-66
2022/12/12 03:25:23;;;;;;;9.70;6.20;;;;;;;-0.69;79.74;94265.67;1770009;80;20136;-66
2022/12/12 03:28:01;;;;;;;11.27;6.90;;;;;;;-0.60;79.89;94249.31;1787739;80;21017;-66
2022/12/12 03:30:34;;;;;;;9.87;6.60;;;;;;;-0.55;79.55;94252.78;1787872;80;21005;-66
2022/12/12 03:33:08;;;;;;;13.00;7.03;;;;;;;-0.53;79.59;94238.51;1787871;80;20985;-66
2022/12/12 03:35:52;;;;;;;12.83;7.40;;;;;;;-0.49;79.87;94251.48;1787604;80;21002;-66
2022/12/12 03:38:24;;;;;;;13.10;7.93;;;;;;;-0.45;79.51;94249.34;1787795;80;21495;-66
2022/12/12 03:40:59;;;;;;;10.17;7.03;;;;;;;-0.44;79.41;94247.61;1786382;80;21499;-66
2022/12/12 03:43:40;;;;;;;12.03;7.30;;;;;;;-0.48;79.17;94255.82;1787850;80;20997;-66
2022/12/12 03:46:22;;;;;;;12.03;8.10;;;;;;;-0.48;79.17;94243.27;1785834;80;21045;-66
2022/12/12 03:48:53;;;;;;;12.30;7.77;;;;;;;-0.47;79.08;94256.67;1787901;80;21032;-66
2022/12/12 03:51:28;;;;;;;11.77;7.37;;;;;;;-0.52;78.83;94250.19;1786898;80;21013;-66
2022/12/12 03:53:59;;;;;;;11.20;6.97;;;;;;;-0.55;79.05;94255.80;1787680;80;20993;-66
2022/12/12 03:56:54;;;;;;;12.60;7.70;;;;;;;-0.59;79.07;94247.14;1787755;80;21531;-66
2022/12/12 03:59:31;;;;;;;12.70;7.07;;;;;;;-0.58;79.39;94255.37;1787338;80;21523;-66
2022/12/12 04:02:20;;;;;;;12.17;7.30;;;;;;;-0.58;79.30;94241.12;1787468;80;21503;-66
2022/12/12 04:05:09;;;;;;;10.53;7.33;;;;;;;-0.57;79.22;94260.11;1787401;80;21014;-66
2022/12/12 04:07:48;;;;;;;11.87;6.87;;;;;;;-0.68;79.02;94258.36;1787116;80;21046;-66
2022/12/12 04:13:20;;;;;;;12.93;8.00;;;;;;;-0.75;79.84;94260.93;1788004;80;20957;-66
2022/12/12 04:16:11;;;;;;;12.70;7.73;;;;;;;-0.75;79.86;94268.70;1787340;80;21814;-66
2022/12/12 04:18:58;;;;;;;14.63;8.23;;;;;;;-0.80;80.22;94263.94;1787748;80;21065;-66
2022/12/12 04:24:46;;;;;;;14.90;8.60;;;;;;;-0.76;80.46;94258.74;1787853;80;20966;-66
2022/12/12 04:27:21;;;;;;;15.90;8.77;;;;;;;-0.72;80.42;94263.09;1787726;80;21021;-66
2022/12/12 04:29:56;;;;;;;14.83;8.60;;;;;;;-0.65;80.30;94270.45;1787528;80;20966;-66
2022/12/12 04:32:42;;;;;;;12.87;8.00;;;;;;;-0.63;80.02;94267.84;1787465;80;21013;-66
2022/12/12 04:35:40;;;;;;;14.30;8.73;;;;;;;-0.64;79.91;94268.28;1787541;80;21002;-66
2022/12/12 04:38:22;;;;;;;12.50;8.13;;;;;;;-0.72;80.02;94272.15;1787693;80;20998;-66
2022/12/12 04:40:56;;;;;;;13.97;8.43;;;;;;;-0.69;80.25;94274.74;1788102;80;21532;-66
2022/12/12 04:43:33;;;;;;;14.50;8.50;;;;;;;-0.74;79.84;94282.07;1756798;80;21510;-66
2022/12/12 04:46:05;;;;;;;13.80;8.77;;;;;;;-0.87;80.26;94282.02;1787643;80;20997;-66
2022/12/12 04:48:38;;;;;;;14.63;9.05;;;;;;;-0.88;80.38;94288.08;1787825;80;21032;-66
2022/12/12 04:51:08;;;;;;;14.50;8.67;;;;;;;-0.88;80.50;94272.53;1784890;80;21451;-66
2022/12/12 04:53:39;;;;;;;14.13;9.50;;;;;;;-0.84;81.17;94283.76;1755681;80;21483;-66
2022/12/12 04:56:10;;;;;;;19.03;10.87;;;;;;;-0.69;81.63;94274.74;1757073;80;21005;-66
2022/12/12 04:58:39;;;;;;;16.07;9.70;;;;;;;-0.62;81.21;94269.16;1787625;80;21014;-66
2022/12/12 05:01:14;;;;;;;16.37;9.70;;;;;;;-0.63;81.16;94275.63;1787514;80;21012;-66
2022/12/12 05:03:52;;;;;;;15.43;10.37;;;;;;;-0.58;81.16;94276.50;1787655;80;21070;-66
2022/12/12 05:06:32;;;;;;;17.57;11.00;;;;;;;-0.62;80.47;94288.59;1788906;80;21103;-66
2022/12/12 05:09:01;;;;;;;15.97;9.70;;;;;;;-0.59;81.15;94295.06;1795628;80;20962;-66
2022/12/12 05:11:29;;;;;;;13.80;9.37;;;;;;;-0.53;81.22;94288.62;1796196;80;20998;-66
2022/12/12 05:13:55;;;;;;;13.93;8.60;;;;;;;-0.51;80.31;94288.61;1768682;80;20985;-65
2022/12/12 05:16:31;;;;;;;12.27;7.80;;;;;;;-0.54;80.22;94280.84;1796419;79;21069;-66
2022/12/12 05:18:58;;;;;;;14.97;9.80;;;;;;;-0.57;79.97;94289.47;1795593;80;21009;-66
2022/12/12 05:21:26;;;;;;;25.17;13.47;;;;;;;-0.63;79.70;94289.87;1796141;80;21017;-66
2022/12/12 05:23:53;;;;;;;15.40;9.20;;;;;;;-0.72;79.75;94303.23;1796331;79;21033;-66
2022/12/12 05:26:27;;;;;;;16.37;9.07;;;;;;;-0.83;80.31;94297.56;1796340;80;21020;-66
2022/12/12 05:28:54;;;;;;;19.43;10.37;;;;;;;-0.80;80.65;94299.75;1796527;80;20989;-66
2022/12/12 05:31:22;;;;;;;13.63;8.43;;;;;;;-0.81;80.66;94292.83;1796001;79;21022;-66
2022/12/12 05:33:48;;;;;;;11.20;6.60;;;;;;;-0.78;81.12;94297.15;1796306;80;21044;-65
2022/12/12 05:36:16;;;;;;;14.07;7.70;;;;;;;-0.73;80.42;94303.21;1796203;80;21005;-66
2022/12/12 05:38:43;;;;;;;11.97;7.30;;;;;;;-0.73;80.84;94307.98;1796537;80;21292;-66
2022/12/12 05:41:10;;;;;;;12.70;7.00;;;;;;;-0.74;80.38;94304.09;1796133;80;21048;-66
2022/12/12 05:43:37;;;;;;;13.37;7.90;;;;;;;-0.78;80.63;94308.41;1795758;80;21033;-66
2022/12/12 05:46:05;;;;;;;14.10;8.67;;;;;;;-0.79;80.97;94310.53;1796110;80;20989;-67
2022/12/12 05:48:32;;;;;;;15.97;9.57;;;;;;;-0.76;80.90;94309.25;1796305;80;21024;-66
2022/12/12 05:51:03;;;;;;;15.30;8.27;;;;;;;-0.84;81.00;94307.06;1795926;79;21020;-67
2022/12/12 05:53:30;;;;;;;15.23;9.77;;;;;;;-0.87;81.75;94301.45;1795308;80;21028;-68
2022/12/12 05:55:57;;;;;;;14.40;9.50;;;;;;;-0.83;81.97;94317.88;1795432;80;21013;-66
2022/12/12 05:58:24;;;;;;;16.30;9.50;;;;;;;-0.69;82.20;94325.69;1795550;80;21013;-67
2022/12/12 06:00:52;;;;;;;15.40;10.40;;;;;;;-0.69;81.38;94317.92;1795587;79;20994;-66
2022/12/12 06:03:19;;;;;;;18.53;10.73;;;;;;;-0.65;81.65;94317.08;1794908;80;21055;-64
2022/12/12 06:05:46;;;;;;;19.33;11.97;;;;;;;-0.63;81.56;94314.07;1794503;79;21067;-67
2022/12/12 06:08:13;;;;;;;18.63;12.53;;;;;;;-0.67;81.77;94313.61;1787755;80;21052;-68
2022/12/12 06:10:39;;;;;;;18.63;11.93;;;;;;;-0.70;81.93;94320.09;1787261;80;21045;-67
2022/12/12 06:13:06;;;;;;;19.17;10.97;;;;;;;-0.63;82.09;94317.06;1786858;80;21021;-67
2022/12/12 06:15:33;;;;;;;18.33;10.40;;;;;;;-0.62;81.66;94322.70;1785510;80;21072;-68
2022/12/12 06:18:00;;;;;;;20.10;11.47;;;;;;;-0.68;81.73;94324.81;1786688;80;21027;-69
2022/12/12 06:20:29;;;;;;;18.10;11.17;;;;;;;-0.68;81.90;94320.53;1787028;80;21092;-65
2022/12/12 06:22:56;;;;;;;16.90;10.77;;;;;;;-0.67;82.03;94322.24;1786452;80;21530;-65
2022/12/12 06:25:23;;;;;;;17.80;11.33;;;;;;;-0.60;82.19;94339.13;1787404;80;21080;-65
2022/12/12 06:27:49;;;;;;;16.80;10.87;;;;;;;-0.63;81.55;94337.39;1787013;80;21032;-65
2022/12/12 06:30:17;;;;;;;16.80;11.43;;;;;;;-0.71;81.41;94348.13;1786577;80;21084;-66
2022/12/12 06:32:43;;;;;;;18.67;12.80;;;;;;;-0.83;81.39;94344.17;1786129;80;21044;-65
2022/12/12 06:35:11;;;;;;;19.47;12.57;;;;;;;-0.91;82.36;94340.26;1787415;80;20998;-65
2022/12/12 06:37:39;;;;;;;21.30;13.23;;;;;;;-0.88;82.76;94343.75;1787357;80;20969;-64
2022/12/12 06:40:08;;;;;;;19.33;12.07;;;;;;;-0.88;82.89;94342.45;1786921;80;21501;-66
2022/12/12 06:42:34;;;;;;;19.47;11.40;;;;;;;-0.81;83.01;94353.69;1786636;80;21064;-66
2022/12/12 06:45:02;;;;;;;23.67;14.13;;;;;;;-0.85;82.38;94354.55;1786122;80;21072;-64
2022/12/12 06:47:29;;;;;;;33.30;18.23;;;;;;;-0.93;82.24;94363.58;1786628;80;21056;-65
2022/12/12 06:49:55;;;;;;;32.07;21.20;;;;;;;-0.93;83.02;94356.23;1785621;80;21049;-66
2022/12/12 06:52:22;;;;;;;35.30;19.53;;;;;;;-0.79;83.65;94353.27;1786833;80;21021;-63
2022/12/12 06:54:49;;;;;;;59.63;26.43;;;;;;;-0.76;83.27;94359.75;1786409;80;21151;-66
2022/12/12 06:57:15;;;;;;;59.77;27.40;;;;;;;-0.73;83.53;94361.09;1786953;80;21009;-64
2022/12/12 06:59:42;;;;;;;39.57;20.60;;;;;;;-0.66;83.67;94364.55;1787392;80;21021;-62
2022/12/12 07:02:11;;;;;;;29.17;15.27;;;;;;;-0.54;83.43;94368.92;1787326;80;21029;-65
2022/12/12 07:04:38;;;;;;;26.00;13.80;;;;;;;-0.59;82.32;94367.61;1787403;80;20985;-64
2022/12/12 07:07:04;;;;;;;32.53;18.40;;;;;;;-0.71;82.12;94363.66;1788792;80;21041;-65
2022/12/12 07:09:31;;;;;;;33.93;17.53;;;;;;;-0.68;82.93;94367.55;1794060;78;20973;-66
2022/12/12 07:11:58;;;;;;;25.73;14.80;;;;;;;-0.63;83.26;94372.36;1797356;78;21443;-66
2022/12/12 07:14:24;;;;;;;25.27;15.57;;;;;;;-0.62;82.86;94382.28;1799935;80;21086;-67
2022/12/12 07:16:50;;;;;;;25.90;14.10;;;;;;;-0.67;83.02;94379.67;1799583;80;20992;-65
2022/12/12 07:19:17;;;;;;;11.77;7.17;;;;;;;-0.58;83.24;94381.42;1799107;80;21027;-66
2022/12/12 07:21:44;;;;;;;14.20;9.17;;;;;;;-0.57;82.16;94385.33;1781843;80;21010;-62
2022/12/12 07:24:11;;;;;;;19.80;11.43;;;;;;;-0.68;81.50;94386.98;1800806;79;20988;-64
2022/12/12 07:26:38;;;;;;;29.77;18.97;;;;;;;-0.74;81.61;94380.05;1800977;80;21588;-65
2022/12/12 07:29:05;;;;;;;12.00;8.30;;;;;;;-0.79;81.96;94396.44;1800712;80;21055;-62
2022/12/12 07:31:32;;;;;;;15.40;10.27;;;;;;;-0.77;82.51;94394.73;1800963;79;21040;-61
2022/12/12 07:33:59;;;;;;;11.53;7.60;;;;;;;-0.69;83.13;94395.19;1800833;79;20980;-63
2022/12/12 07:36:25;;;;;;;12.87;8.63;;;;;;;-0.56;83.43;94398.70;1801063;79;21034;-65
2022/12/12 07:38:52;;;;;;;13.93;7.53;;;;;;;-0.42;82.91;94396.19;1801172;80;20996;-62
2022/12/12 07:41:19;;;;;;;16.83;12.17;;;;;;;-0.36;82.86;94394.04;1801237;79;21439;-65
2022/12/12 07:43:48;;;;;;;15.43;9.53;;;;;;;-0.31;82.61;94395.78;1801111;80;21031;-64
2022/12/12 07:46:20;;;;;;;11.40;8.30;;;;;;;-0.24;82.43;94396.68;1800645;80;21015;-64
2022/12/12 07:48:47;;;;;;;10.70;7.37;;;;;;;-0.24;82.06;94396.68;1800426;80;21055;-63
2022/12/12 07:51:15;;;;;;;11.90;7.10;;;;;;;-0.17;81.91;94406.66;1801007;80;21517;-65
2022/12/12 07:53:42;;;;;;;11.33;6.67;;;;;;;-0.09;81.90;94403.64;1801074;80;21062;-63
2022/12/12 07:56:11;;;;;;;11.03;7.27;;;;;;;-0.08;81.16;94406.66;1801012;79;21015;-62
2022/12/12 07:58:38;;;;;;;9.50;5.83;;;;;;;-0.10;81.63;94412.27;1801024;80;21008;-64
2022/12/12 08:01:16;;;;;;;12.87;8.53;;;;;;;-0.09;81.16;94419.20;1801156;80;21051;-64
2022/12/12 08:03:44;;;;;;;12.50;8.37;;;;;;;-0.07;81.79;94418.34;1795891;80;21494;-64
2022/12/12 08:06:12;;;;;;;13.67;8.97;;;;;;;-0.10;81.73;94418.75;1800322;80;21089;-63
2022/12/12 08:08:39;;;;;;;10.67;7.53;;;;;;;-0.08;81.81;94423.08;1797469;79;21074;-62
2022/12/12 08:11:09;;;;;;;14.40;8.97;;;;;;;0.04;81.59;94422.70;1797496;80;21091;-63
2022/12/12 08:13:38;;;;;;;15.23;9.10;;;;;;;0.09;81.73;94432.20;1797721;80;21051;-61
2022/12/12 08:16:08;;;;;;;14.53;9.70;;;;;;;0.23;81.60;94425.77;1797878;80;21023;-62
2022/12/12 08:18:35;;;;;;;15.30;10.03;;;;;;;0.25;80.59;94437.00;1796737;80;21599;-62
2022/12/12 08:21:11;;;;;;;14.40;9.83;;;;;;;0.29;80.62;94435.30;1797080;80;21055;-62
2022/12/12 08:23:39;;;;;;;14.60;9.83;;;;;;;0.29;80.80;94437.45;1796923;80;21647;-62
2022/12/12 08:26:09;;;;;;;14.23;9.10;;;;;;;0.37;81.09;94427.94;1797556;80;21000;-63
2022/12/12 08:28:36;;;;;;;12.27;8.53;;;;;;;0.47;80.26;94442.23;1798131;80;21035;-64
2022/12/12 08:31:04;;;;;;;30.60;22.93;;;;;;;0.45;79.55;94442.66;1797727;80;21596;-62
2022/12/12 08:33:30;;;;;;;26.67;14.93;;;;;;;0.35;79.48;94452.16;1797867;80;21450;-64
2022/12/12 08:35:57;;;;;;;19.07;11.43;;;;;;;0.31;80.11;94440.92;1797110;80;21615;-67
2022/12/12 08:38:27;;;;;;;22.27;11.97;;;;;;;0.32;79.92;94447.83;1798089;80;21087;-63
2022/12/12 08:40:54;;;;;;;16.47;10.27;;;;;;;0.35;80.40;94453.05;1797618;80;21051;-63
2022/12/12 08:43:21;;;;;;;17.10;10.30;;;;;;;0.39;80.21;94453.91;1778255;80;21109;-68
2022/12/12 08:45:47;;;;;;;15.47;9.70;;;;;;;0.43;80.57;94451.77;1729460;83;21089;-70
2022/12/12 08:48:14;;;;;;;14.17;9.20;;;;;;;0.40;78.97;94455.22;1774403;81;20996;-65
2022/12/12 08:50:41;;;;;;;13.80;9.03;;;;;;;0.38;79.20;94447.86;1775155;80;21007;-65
2022/12/12 08:53:08;;;;;;;13.50;9.40;;;;;;;0.38;79.45;94454.34;1775251;80;20956;-65
2022/12/12 08:55:35;;;;;;;14.33;9.00;;;;;;;0.40;79.60;94454.33;1775100;81;21019;-63
2022/12/12 08:58:01;;;;;;;14.53;10.07;;;;;;;0.46;80.09;94450.90;1775134;80;20983;-63
2022/12/12 09:00:28;;;;;;;15.20;10.30;;;;;;;0.46;79.32;94450.46;1774580;80;21085;-63
2022/12/12 09:02:55;;;;;;;13.60;9.13;;;;;;;0.54;79.77;94443.55;1774091;81;21109;-65
2022/12/12 09:05:22;;;;;;;18.03;11.23;;;;;;;0.53;78.75;94447.02;1774606;80;20999;-63
2022/12/12 09:07:49;;;;;;;21.27;12.73;;;;;;;0.45;79.05;94446.55;1774486;81;21039;-62
2022/12/12 09:10:16;;;;;;;21.90;13.90;;;;;;;0.43;78.88;94443.98;1773975;81;21583;-68
2022/12/12 09:12:43;;;;;;;49.93;34.20;;;;;;;0.38;79.65;94441.37;1775227;81;21027;-64
2022/12/12 09:15:10;;;;;;;22.77;16.17;;;;;;;0.45;80.11;94440.06;1775017;81;21172;-66
2022/12/12 09:17:37;;;;;;;19.53;11.90;;;;;;;0.49;80.28;94433.59;1775004;81;20988;-64
2022/12/12 09:20:05;;;;;;;27.97;21.73;;;;;;;0.57;80.14;94435.75;1775637;81;20988;-65
2022/12/12 09:22:32;;;;;;;20.43;12.90;;;;;;;0.66;79.62;94436.21;1774637;81;21035;-66
2022/12/12 09:24:59;;;;;;;22.33;13.23;;;;;;;0.72;79.61;94439.23;1774669;81;21486;-66
2022/12/12 09:27:26;;;;;;;22.20;13.63;;;;;;;0.81;79.43;94441.41;1774900;81;21134;-63
2022/12/12 09:29:52;;;;;;;31.07;20.17;;;;;;;0.97;79.92;94425.38;1774801;81;21043;-65
2022/12/12 09:32:19;;;;;;;106.40;71.03;;;;;;;1.10;79.73;94428.83;1775192;81;21003;-67
2022/12/12 09:34:46;;;;;;;23.67;16.80;;;;;;;1.19;79.98;94425.38;1774837;81;20988;-65
2022/12/12 09:37:12;;;;;;;16.30;10.10;;;;;;;1.19;78.09;94427.97;1774858;81;21510;-68
2022/12/12 09:39:39;;;;;;;10.17;7.70;;;;;;;1.24;76.60;94429.69;1775185;81;20996;-66
2022/12/12 09:42:20;;;;;;;6.10;4.63;;;;;;;1.28;77.08;94428.79;1774965;81;21012;-64
2022/12/12 09:44:49;;;;;;;4.80;4.10;;;;;;;1.51;76.48;94426.58;1774622;81;21019;-67
2022/12/12 09:47:45;;;;;;;2.50;1.60;;;;;;;1.75;74.86;94425.65;1772056;81;20954;-65
2022/12/12 09:50:35;;;;;;;5.20;3.63;;;;;;;1.92;74.11;94421.69;1755893;81;21038;-66
2022/12/12 09:53:13;;;;;;;1.20;0.90;;;;;;;1.83;72.63;94424.32;1761587;81;21405;-74
2022/12/12 09:56:00;;;;;;;1.47;1.00;;;;;;;1.68;71.67;94425.23;1760384;81;20966;-66
2022/12/12 09:58:44;;;;;;;47.03;14.90;;;;;;;1.61;72.08;94428.28;1763250;81;21041;-66
2022/12/12 10:01:25;;;;;;;2.70;1.47;;;;;;;1.54;72.97;94427.89;1762264;81;20998;-67
2022/12/12 10:04:18;;;;;;;4.40;1.70;;;;;;;1.44;73.46;94430.95;1760132;81;21523;-67
2022/12/12 10:06:58;;;;;;;1.93;1.00;;;;;;;1.36;73.12;94424.02;1761802;81;20994;-68
2022/12/12 10:09:39;;;;;;;1.67;1.10;;;;;;;1.26;73.31;94422.76;1760552;80;20990;-68
2022/12/12 10:12:12;;;;;;;1.53;1.10;;;;;;;1.17;72.78;94427.96;1715017;81;20987;-67
2022/12/12 10:14:45;;;;;;;1.43;0.83;;;;;;;1.09;73.25;94438.80;1756621;81;20992;-67
2022/12/12 10:17:23;;;;;;;9.97;3.37;;;;;;;0.85;72.38;94435.77;1755192;81;21461;-68
2022/12/12 10:19:55;;;;;;;6.07;2.23;;;;;;;0.84;72.79;94440.10;1754816;81;20982;-68
2022/12/12 10:22:39;;;;;;;19.87;5.77;;;;;;;0.83;73.58;94450.07;1753876;81;20975;-68
2022/12/12 10:25:09;;;;;;;;;;;;;;;0.84;72.46;94445.30;1757172;80;21464;-66
2022/12/12 10:27:35;;;;;;;;;;;;;;;0.91;73.18;94441.39;1759426;81;20114;-67
2022/12/12 10:30:08;;;;;;;;;;;;;;;0.94;72.18;94446.61;1769643;81;20109;-68
2022/12/12 10:32:53;;;;;;;;;;;;;;;0.82;71.35;94445.72;1774849;81;20382;-67
2022/12/12 10:35:45;;;;;;;;;;;;;;;0.90;72.67;94452.66;1767631;81;20160;-67
2022/12/12 10:38:20;;;;;;;;;;;;;;;0.88;70.20;94454.38;1776936;81;20098;-67
2022/12/12 10:41:00;;;;;;;;;;;;;;;0.92;71.75;94449.63;1771948;81;20138;-67
2022/12/12 10:43:35;;;;;;;;;;;;;;;0.82;69.83;94450.92;1777079;81;20106;-66
2022/12/12 10:46:18;;;;;;;;;;;;;;;0.82;70.26;94458.70;1776068;81;20106;-67
2022/12/12 10:48:46;;;;;;;;;;;;;;;0.66;69.88;94455.68;1777746;81;20102;-67
2022/12/12 10:51:14;;;;;;;;;;;;;;;0.75;70.37;94459.56;1779093;81;20395;-67
2022/12/12 10:53:41;;;;;;;;;;;;;;;0.83;70.09;94460.45;1778655;81;20481;-67
2022/12/12 10:56:14;;;;;;;;;;;;;;;0.78;70.02;94466.48;1763126;81;20478;-68
2022/12/12 10:58:42;;;;;;;;;;;;;;;0.81;70.79;94468.67;1763698;81;20134;-67
2022/12/12 11:01:13;;;;;;;;;;;;;;;0.88;71.57;94463.03;1762111;81;20102;-67
2022/12/12 11:03:48;;;;;;;;;;;;;;;0.94;71.86;94465.64;1798368;80;20429;-67
2022/12/12 11:06:31;;;;;;;;;;;;;;;0.99;70.53;94462.61;1798843;80;20123;-67
2022/12/12 11:09:01;;;;;;;;;;;;;;;1.06;70.11;94472.58;1799888;80;20096;-66
2022/12/12 11:11:28;;;;;;;;;;;;;;;1.00;69.69;94475.16;1801290;80;20123;-66
2022/12/12 11:13:58;;;;;;;;;;;;;;;0.97;70.06;94480.36;1801635;80;20112;-66
2022/12/12 11:16:31;;;;;;;;;;;;;;;0.83;70.54;94481.23;1801465;80;20139;-66
2022/12/12 11:19:06;;;;;;;;;;;;;;;0.79;70.69;94488.57;1801759;80;20346;-66
2022/12/12 11:21:35;;;;;;;;;;;;;;;0.72;71.25;94491.16;1801656;80;20088;-66
2022/12/12 11:24:07;;;;;;;;;;;;;;;0.66;71.07;94495.92;1801356;80;20100;-66
2022/12/12 11:26:43;;;;;;;;;;;;;;;0.58;70.89;94504.09;1801525;80;20128;-67
2022/12/12 11:29:25;;;;;;;;;;;;;;;0.49;71.26;94517.94;1792927;80;20393;-66
2022/12/12 11:31:53;;;;;;;;;;;;;;;0.38;70.53;94512.73;1759838;80;20130;-67
2022/12/12 11:34:24;;;;;;;;;;;;;;;0.27;71.48;94517.44;1801410;80;20386;-67
2022/12/12 11:36:50;;;;;;;;;;;;;;;0.18;71.83;94530.81;1801028;80;20385;-66
2022/12/12 11:39:23;;;;;;;;;;;;;;;0.13;71.52;94530.37;1801573;80;20104;-66
2022/12/12 11:42:05;;;;;;;;;;;;;;;0.08;71.26;94532.94;1801453;80;20079;-67
2022/12/12 11:44:34;;;;;;;;;;;;;;;0.07;71.84;94540.70;1752058;80;20092;-66
2022/12/12 11:47:22;;;;;;;;;;;;;;;0.04;71.93;94547.17;1801494;80;20390;-66
2022/12/12 11:49:52;;;;;;;;;;;;;;;0.01;72.17;94532.91;1801475;80;20386;-66
2022/12/12 11:52:23;;;;;;;;;;;;;;;0.08;73.88;94539.42;1800036;80;20096;-66
2022/12/12 11:54:49;;;;;;;;;;;;;;;0.10;72.49;94539.00;1800897;80;20135;-66
2022/12/12 11:57:40;;;;;;;;;;;;;;;0.09;74.50;94548.06;1800956;79;20104;-66
2022/12/12 12:00:19;;;;;;;;;;;;;;;0.13;73.54;94541.60;1801707;80;20136;-66
2022/12/12 12:03:03;;;;;;;;;;;;;;;0.01;71.87;94544.14;1801451;80;20135;-66
2022/12/12 12:05:59;;;;;;;;;;;;;;;0.01;73.40;94548.02;1801268;80;20096;-66
2022/12/12 12:08:45;;;;;;;;;;;;;;;0.05;73.71;94548.89;1800729;80;20143;-66
2022/12/12 12:11:47;;;;;;;;;;;;;;;0.02;72.24;94546.30;1797666;80;20465;-67
2022/12/12 12:14:35;;;;;;;;;;;;;;;0.03;71.14;94547.61;1798512;80;20108;-66
2022/12/12 12:17:20;;;;;;;;;;;;;;;0.08;71.33;94545.05;1751587;80;20107;-66
2022/12/12 12:19:52;;;;;;;;;;;;;;;0.26;70.11;94542.95;1798073;80;20127;-66